logo
Games tagged Psychological
# Game Release date
Price
Score rank
(Userscore / Metascore)
Owners
Players
Playtime (Median)
Developer(s)
Publisher(s)
1 The Stanley Parable Oct 17, 2013 $14.99N/A (N/A/88%)2,000,000 .. 5,000,0001%00:06 (00:02)Galactic CafeGalactic Cafe
2 Psychonauts Oct 11, 2006 $9.99N/A (N/A/87%)2,000,000 .. 5,000,0000%00:00 (00:00)Double Fine ProductionsDouble Fine Productions
3 Eliza Aug 12, 2019 $14.99N/A (N/A/84%)20,000 .. 50,0000%00:00 (00:00)ZachtronicsZachtronics
4 This War of Mine Nov 14, 2014 $19.99N/A (N/A/83%)2,000,000 .. 5,000,0004.03%01:38 (02:39)11 bit studios11 bit studios
5 Hellblade: Senua's Sacrifice Aug 8, 2017 $29.99N/A (N/A/83%)1,000,000 .. 2,000,0003.03%01:26 (00:38)Ninja TheoryNinja Theory
6 Antichamber Jan 31, 2013 $19.99N/A (N/A/82%)1,000,000 .. 2,000,0000%00:00 (00:00)Alexander BruceDemruth
7 Ether One Mar 25, 2014 $19.99N/A (N/A/82%)20,000 .. 50,0000%00:00 (00:00)White Paper GamesWhite Paper Games
8 Hypnospace Outlaw Mar 12, 2019 $19.99N/A (N/A/82%)50,000 .. 100,0000%00:00 (00:00)Tendershoot, Michael Lasch, ThatWhichIs MediaNo More Robots
9 To the Moon Sep 7, 2012 $9.99N/A (N/A/81%)1,000,000 .. 2,000,0001.33%00:11 (00:03)Freebird GamesFreebird Games
10 The Cat Lady Dec 4, 2013 $9.99N/A (N/A/81%)200,000 .. 500,0000%00:00 (00:00)Harvester GamesScreen 7
11 A Fisherman's Tale Jan 22, 2019 $14.99N/A (N/A/78%)20,000 .. 50,0000%00:00 (00:00)InnerspaceVRVertigo Games
12 Lydia Jun 2, 2017 $3.99N/A (N/A/78%)20,000 .. 50,000NAN%00:00 (00:00)Platonic Partnership LtdPlatonic Partnership Ltd, Nakana.io
13 Still There Nov 20, 2019 $14.99N/A (N/A/77%)0 .. 20,000NAN%00:00 (00:00)GhostSharkIceberg Interactive
14 DISTRAINT: Deluxe Edition Oct 21, 2015 $0.84N/A (N/A/76%)2,000,000 .. 5,000,0000.94%03:55 (01:36)Jesse MakkonenJesse Makkonen
15 Spec Ops: The Line Jun 25, 2012 $29.99N/A (N/A/76%)1,000,000 .. 2,000,0000.45%00:41 (00:13)YAGER2K, Missing Link Games
16 The Stillness of the Wind Feb 7, 2019 $12.99N/A (N/A/76%)0 .. 20,0000%00:00 (00:00)Memory of God / Lambic StudiosFellow Traveller
17 MIND: Path to Thalamus Enhanced Edition Aug 5, 2014 $5.99N/A (N/A/75%)100,000 .. 200,0000%00:00 (00:00)Pantumaca Barcelona, @CarlosGameDev, Dani Navarro, Luka NietoTalking About Media
18 GET EVEN Jun 20, 2017 $29.99N/A (N/A/75%)20,000 .. 50,0000%00:00 (00:00)The Farm 51BANDAI NAMCO Entertainment
19 The Shattering Apr 21, 2020 $19.99N/A (N/A/71%)0 .. 20,0000%00:00 (00:00)Super Sexy SoftwareDeck13
20 A Normal Lost Phone Jan 26, 2017 $2.99N/A (N/A/71%)50,000 .. 100,0000%00:00 (00:00)Accidental QueensDear Villagers
21 Fran Bow Aug 27, 2015 $14.99N/A (N/A/70%)200,000 .. 500,0000%00:00 (00:00)Killmonday Games ABKillmonday Games AB
22 Papo & Yo Apr 18, 2013 $14.99N/A (N/A/70%)20,000 .. 50,0000%00:00 (00:00)Minority Media Inc.Minority Media
23 Layers of Fear 2 May 28, 2019 $29.99N/A (N/A/70%)20,000 .. 50,0000%00:00 (00:00)Bloober Team SAGun Media, NA Publishing
24 Tokyo Dark Sep 7, 2017 $17.99N/A (N/A/70%)20,000 .. 50,0000%00:00 (00:00)CherrymochiSquare Enix
25 Home Jun 1, 2012 $4.99N/A (N/A/69%)200,000 .. 500,0007.14%00:32 (00:10)Benjamin Rivers Inc.Benjamin Rivers Inc.
26 Blair Witch Aug 30, 2019 $29.99N/A (N/A/69%)500,000 .. 1,000,0000%00:00 (00:00)Bloober Team SABloober Team NA
27 Moons of Madness Oct 22, 2019 $24.99N/A (N/A/69%)100,000 .. 200,0000%00:00 (00:00)Rock Pocket GamesFuncom
28 Masochisia Oct 9, 2015 $7.99N/A (N/A/68%)20,000 .. 50,000NAN%00:00 (00:00)OldbloodOldblood
29 Neverending Nightmares Sep 26, 2014 $14.99N/A (N/A/68%)100,000 .. 200,0000%00:00 (00:00)Infinitap GamesInfinitap Games
30 Hide and Shriek Oct 25, 2016 FreeN/A (N/A/68%)500,000 .. 1,000,0002.94%00:31 (00:20)FuncomFuncom
31 The Park Oct 27, 2015 $12.99N/A (N/A/67%)100,000 .. 200,0000%00:00 (00:00)FuncomFuncom
32 Rainswept Feb 1, 2019 $11.99N/A (N/A/67%)0 .. 20,000NAN%00:00 (00:00)Frostwood InteractiveFrostwood Interactive
33 Silence of the Sleep Oct 1, 2014 $0.84N/A (N/A/66%)50,000 .. 100,0000%00:00 (00:00)Jesse MakkonenJesse Makkonen
34 The Town of Light Feb 26, 2016 $18.99N/A (N/A/64%)50,000 .. 100,0000%00:00 (00:00)LKALKA, Wired Productions
35 The Silver Case Oct 6, 2016 $19.99N/A (N/A/64%)20,000 .. 50,000NAN%00:00 (00:00)GRASSHOPPER MANUFACTURE INC., PLAYISMGRASSHOPPER MANUFACTURE INC.
36 Lucid Dream Adventure Oct 8, 2018 $5.99N/A (N/A/62%)0 .. 20,0000%00:00 (00:00)Dali GamesDali Games
37 Disorder Jan 12, 2015 $3.99N/A (N/A/61%)20,000 .. 50,0000%00:00 (00:00)Swagabyte GamesRooster Teeth Games
38 Decay: The Mare Feb 13, 2015 $4.99N/A (N/A/60%)100,000 .. 200,00016.67%05:21 (01:47)Shining Gate SoftwareDaedalic Entertainment
39 POSTAL Nov 14, 1997 FreeN/A (N/A/56%)2,000,000 .. 5,000,0000%00:00 (00:00)Running With ScissorsRunning With Scissors
40 Syndrome Oct 6, 2016 $19.99N/A (N/A/56%)0 .. 20,0000%00:00 (00:00)Camel 101Camel 101, WhisperGames
41 POSTAL Redux May 20, 2016 $8.99N/A (N/A/54%)50,000 .. 100,0000%00:00 (00:00)Running With ScissorsRunning With Scissors
42 Silver Chains Aug 6, 2019 $24.99N/A (N/A/51%)0 .. 20,0000%00:00 (00:00)Cracked Heads GamesHeadup
43 CHAOS;CHILD Jan 22, 2019 $34.99N/A (N/A)0 .. 20,0000%00:00 (00:00)MAGES. Inc.Spike Chunsoft Co., Ltd.
44 The Horologist's Legacy Oct 24, 2018 $19.99N/A (N/A)0 .. 20,000NAN%00:00 (00:00)Cole and Jordan StudiosCole and Jordan Studios
45 Strange Telephone Jan 21, 2019 $4.99N/A (N/A)20,000 .. 50,000NAN%00:00 (00:00)HZ3 SoftwarePLAYISM
46 25 Cadre of Death Oct 22, 2018 $5.99N/A (N/A)0 .. 20,000NAN%00:00 (00:00)indie_games_studioindie_games_studio
47 The Spell - A Kinetic Novel Jan 15, 2019 $4.99N/A (N/A)0 .. 20,000NAN%00:00 (00:00)Hangover Cat PurrroductionHangover Cat Purrroduction
48 Fallstreak Oct 19, 2018 FreeN/A (N/A)0 .. 20,000NAN%00:00 (00:00)Centicerise ProductionsCenticerise Productions
49 Close Your Eyes -Anniversary Remake- Dec 21, 2018 $4.99N/A (N/A)0 .. 20,000NAN%00:00 (00:00)Yai GameworksYai Gameworks
50 God's Basement Oct 16, 2018 $14.99N/A (N/A)20,000 .. 50,000NAN%00:00 (00:00)ErebusErebus
51 Among Us Nov 16, 2018 $4.99N/A (N/A)200,000 .. 500,00015.79%03:27 (01:25)InnerslothInnersloth
52 DISTRAINT 2 Nov 13, 2018 $3.59N/A (N/A)20,000 .. 50,0000%00:00 (00:00)Jesse MakkonenJesse Makkonen
53 Crimson Gray: Dusk and Dawn Oct 5, 2018 $4.99N/A (N/A)0 .. 20,000NAN%00:00 (00:00)Sierra LeeSierra Lee
54 Running Girl Nov 12, 2018 $9.99N/A (N/A)0 .. 20,000NAN%00:00 (00:00)TonAmeTonAme
55 Light The Way Jan 25, 2019 $6.99N/A (N/A)0 .. 20,000NAN%00:00 (00:00)QuickSaveQuickSave
56 Lost in Vivo Nov 5, 2018 $11.99N/A (N/A)50,000 .. 100,0000%00:00 (00:00)KIRAKIRA
57 Away Oct 31, 2018 FreeN/A (N/A)20,000 .. 50,000NAN%00:00 (00:00)NipoBoxNipoBox
58 Rest House Mar 10, 2020 $4.99N/A (N/A)0 .. 20,0000%00:00 (00:00)studio Don Quixotestudio Don Quixote, Minotaur production
59 Philophobia: The Fear of Love Feb 10, 2020 $11.99N/A (N/A)0 .. 20,000NAN%00:00 (00:00)Tim RuswickTim Ruswick
60 Return to Shironagasu Island Mar 2, 2020 $4.99N/A (N/A)0 .. 20,0000%00:00 (00:00)HYOGO ONIMUSHITABINOMICHI
61 Dead Dreams Feb 6, 2020 $7.99N/A (N/A)0 .. 20,000NAN%00:00 (00:00)Aiaz MarxAiaz Marx
62 UNNAMED Mar 2, 2020 $0.99N/A (N/A)0 .. 20,000NAN%00:00 (00:00)H3SoftH3Soft
63 Human Delusion Jan 24, 2020 $2.99N/A (N/A)0 .. 20,000NAN%00:00 (00:00)JoaAM ProductionsJoaAM Productions
64 The House in the Forest Feb 24, 2020 $0.74N/A (N/A)0 .. 20,000NAN%00:00 (00:00)_k.y._k.y.
65 Retrace Jan 20, 2020 $19.99N/A (N/A)0 .. 20,000NAN%00:00 (00:00)Spider Lily Studios LLCSpider Lily Studios LLC
66 Heaven Dust Feb 26, 2020 $7.99N/A (N/A)0 .. 20,000NAN%00:00 (00:00)One Gruel Studioindienova
67 Together - A Wish No One Remembers Jan 20, 2020 $10.99N/A (N/A)0 .. 20,000NAN%00:00 (00:00)Hangover Cat Purrroduction Hangover Cat Purrroduction
68 随风而逝/Story About Times Feb 25, 2020 $4.99N/A (N/A)0 .. 20,000NAN%00:00 (00:00)cdhy interactivecdhy interactive
69 Bed Lying Simulator Jan 16, 2020 $0.99N/A (N/A)0 .. 20,000NAN%00:00 (00:00)Oblomov IndustriesKavkaz Sila Games
70 Rhome Feb 21, 2020 FreeN/A (N/A)0 .. 20,000NAN%00:00 (00:00)SMU GuildhallSMU Guildhall
71 Moonlight Mansion Mar 16, 2020 FreeN/A (N/A)0 .. 20,000NAN%00:00 (00:00)Monocarpic GameCNM
72 The Convenience Store | 夜勤事件 Feb 17, 2020 $2.69N/A (N/A)0 .. 20,0000%00:00 (00:00)Chilla's ArtChilla's Art
73 Pulang : Insanity Mar 13, 2020 $14.99N/A (N/A)0 .. 20,000NAN%00:00 (00:00)OZYSOFTOZYSOFT, WhisperGames, Mayflower Entertainment
74 Aether Field Feb 17, 2020 $9.99N/A (N/A)0 .. 20,000NAN%00:00 (00:00)Mikołaj SpychałMikołaj Spychał
75 Notch - The Innocent LunA: Eclipsed SinnerS Jun 4, 2015 $3.39N/A (N/A)50,000 .. 100,0000%00:00 (00:00)Angels Blue Digital Entertainment, DigitalEZDigitalEZ
76 Morphine Oct 26, 2015 $2.99N/A (N/A)20,000 .. 50,0000%00:00 (00:00)Kerim KumbasarKerim Kumbasar
77 The Fruit of Grisaia May 29, 2015 $39.99N/A (N/A)20,000 .. 50,0000%00:00 (00:00)FrontwingFrontwing USA
78 Star Sky Oct 23, 2015 $3.99N/A (N/A)0 .. 20,0000%00:00 (00:00)JMJ Interactive, Mårten JonssonPLAYISM
79 Higurashi When They Cry Hou - Ch.1 Onikakushi May 15, 2015 FreeN/A (N/A)100,000 .. 200,0000%00:00 (00:00)07th ExpansionMangaGamer
80 Plug & Play Mar 5, 2015 $2.99N/A (N/A)100,000 .. 200,0000%00:00 (00:00)Mario von Rickenbach, Michael FreiEtter Studio
81 The Beginner's Guide Oct 1, 2015 $9.99N/A (N/A)200,000 .. 500,0000%00:00 (00:00)Everything Unlimited Ltd.Everything Unlimited Ltd.
82 Immortal Defense Aug 31, 2015 $9.99N/A (N/A)0 .. 20,0000%00:00 (00:00)Studio EresStudio Eres
83 Higurashi When They Cry Hou - Ch.2 Watanagashi Nov 13, 2015 $7.99N/A (N/A)20,000 .. 50,0000%00:00 (00:00)07th ExpansionMangaGamer
84 Nightmare on Azathoth Oct 30, 2015 $0.99N/A (N/A)0 .. 20,000NAN%00:00 (00:00)Modesto RabenaDivergent Game Studio
85 Gynophobia Jul 31, 2015 $1.99N/A (N/A)20,000 .. 50,0000%00:00 (00:00)Andrii VintsevychAndrii Vintsevych
86 STALINGRAD ABATIS Sep 21, 2018 $0.99N/A (N/A)0 .. 20,000NAN%00:00 (00:00)indie_games_studioindie_games_studio
87 Bring to Light Jul 13, 2018 $19.99N/A (N/A)0 .. 20,000NAN%00:00 (00:00)Red Meat GamesRed Meat Games
88 Transference Sep 18, 2018 $24.99N/A (N/A)0 .. 20,0000%00:00 (00:00)UbisoftUbisoft
89 Tomato Way 2 Jul 10, 2018 $8.99N/A (N/A)0 .. 20,000NAN%00:00 (00:00)Vladislav Castillo GonzalezVladislav Castillo Gonzalez
90 Blind Sep 18, 2018 $24.99N/A (N/A)0 .. 20,000NAN%00:00 (00:00)Tiny Bull StudiosFellow Traveller
91 Stifled - Echolocation Horror Mystery Jul 10, 2018 $19.99N/A (N/A)0 .. 20,000NAN%00:00 (00:00)Gattai GamesGattai Games
92 in My MIND. Sep 4, 2018 $0.99N/A (N/A)0 .. 20,000NAN%00:00 (00:00)P.S.B (iNsOoL)PsychoFlux Entertainment
93 Depression The Game Jul 2018 $1.99N/A (N/A)0 .. 20,000NAN%00:00 (00:00)DeepWorks StudiosDeepWorks Studios
94 Need a packet? Aug 20, 2018 $1.39N/A (N/A)0 .. 20,000NAN%00:00 (00:00)Marginal actMarginal act
95 Welcome To The Dreamscape Jun 28, 2018 FreeN/A (N/A)0 .. 20,000NAN%00:00 (00:00)FYRE GamesFYRE Games
96 Found Horror Game 11.exe Aug 16, 2018 $3.99N/A (N/A)0 .. 20,000NAN%00:00 (00:00)Yai GameworksYai Gameworks
97 Deluded Mind Jun 15, 2018 $11.99N/A (N/A)0 .. 20,000NAN%00:00 (00:00)Sky HaubrichPyxton Studios
98 Radiant One Jul 30, 2018 $2.99N/A (N/A)0 .. 20,000NAN%00:00 (00:00)FntasticFntastic
99 Path to Mnemosyne Sep 26, 2018 $9.99N/A (N/A)0 .. 20,000NAN%00:00 (00:00)DevilishGamesDevilishGames
100 Mechanism Jul 19, 2018 $12.99N/A (N/A)0 .. 20,000NAN%00:00 (00:00)Alexander GoodwinAlexander Goodwin
101 Star Sky 3 Sep 25, 2018 $3.99N/A (N/A)0 .. 20,000NAN%00:00 (00:00)Mårten Jonsson, JMJ InteractivePLAYISM
102 Yeli Orog Jul 13, 2018 FreeN/A (N/A)0 .. 20,000NAN%00:00 (00:00)Yeli OrogYeli Orog
103 Yuki Onna | 雪女 Jan 2, 2020 $3.99N/A (N/A)0 .. 20,000NAN%00:00 (00:00)Chilla's ArtChilla's Art
104 Nijowari: Where Angels Fall Nov 19, 2019 $14.99N/A (N/A)0 .. 20,000NAN%00:00 (00:00)Tsukiakari Studios, Motley CrewTsukiakari Studios
105 Zombie Claus Jan 2, 2020 $5.99N/A (N/A)0 .. 20,000NAN%00:00 (00:00)indie_games_studioindie_games_studio
106 Inunaki Tunnel | 犬鳴トンネル Nov 19, 2019 $2.69N/A (N/A)0 .. 20,000NAN%00:00 (00:00)Chilla's ArtChilla's Art
107 退廃思考 -Decadent Thinking- Jan 1, 2020 $14.99N/A (N/A)0 .. 20,000NAN%00:00 (00:00)Hitori Games星野一人
108 Cave of Illusions Oct 30, 2019 $5.99N/A (N/A)0 .. 20,000NAN%00:00 (00:00)Vidas SalavejusVidas Salavejus
109 The Alchemist's House Dec 24, 2019 FreeN/A (N/A)0 .. 20,000NAN%00:00 (00:00)Angry BunnyAngry Bunny
110 Centralia: Homecoming Oct 26, 2019 $12.99N/A (N/A)0 .. 20,000NAN%00:00 (00:00)indie_games_studioindie_games_studio
111 Memody: Sindrel Song Dec 6, 2019 $9.99N/A (N/A)0 .. 20,000NAN%00:00 (00:00)Tobias CornwallTobias Cornwall
112 Stigmatized Property | 事故物件 Oct 25, 2019 $2.69N/A (N/A)0 .. 20,000NAN%00:00 (00:00)Chilla's ArtChilla's Art
113 Interrogation: You will be deceived Dec 5, 2019 $12.99N/A (N/A)0 .. 20,000NAN%00:00 (00:00)Critique GamingMixtvision
114 stikir Oct 23, 2019 $2.99N/A (N/A)0 .. 20,000NAN%00:00 (00:00)Bilge KaanBilge Kaan
115 H-Rescue Jan 29, 2020 $1.99N/A (N/A)0 .. 20,0000%00:00 (00:00)G-BloodG-Blood
116 SELF 自己 Jan 15, 2020 $4.99N/A (N/A)0 .. 20,000NAN%00:00 (00:00)doBellindienova
117 Rock, Paper, Scissors Simulator Jan 10, 2020 $0.99N/A (N/A)0 .. 20,000NAN%00:00 (00:00)Paper Scissors, PleasePaper Scissors, Please
118 EBONY Nov 19, 2019 $8.99N/A (N/A)0 .. 20,000NAN%00:00 (00:00)indie_games_studioindie_games_studio
119 Doorways: Prelude Sep 20, 2013 $9.99N/A (N/A)100,000 .. 200,0000%00:00 (00:00)Saibot StudiosSaibot Studios
120 Cry of Fear Apr 25, 2013 FreeN/A (N/A)1,000,000 .. 2,000,0000%00:00 (00:00)Team PsykskallarTeam Psykskallar
121 Depression Quest Aug 11, 2014 FreeN/A (N/A)200,000 .. 500,0000%00:00 (00:00)The Quinnspiracy, Patrick Lindsey, Isaac SchanklerThe Quinnspiracy
122 Ilamentia Nov 25, 2014 $2.99N/A (N/A)0 .. 20,0000%00:00 (00:00)Anthony CaseCaiysware
123 Edna & Harvey: The Breakout Oct 25, 2013 $14.99N/A (N/A)200,000 .. 500,0000%00:00 (00:00)Daedalic EntertainmentDaedalic Entertainment
124 A Date in the Park Nov 14, 2014 FreeN/A (N/A)100,000 .. 200,0000%00:00 (00:00)Cloak and Dagger GamesCloak and Dagger Games
125 The Dark Inside Me Jun 6, 2018 $3.99N/A (N/A)0 .. 20,000NAN%00:00 (00:00)Akçay KaraazmakAkçay Karaazmak
126 Purgatory Fell Mar 30, 2018 $7.99N/A (N/A)0 .. 20,000NAN%00:00 (00:00)Martian GamesInsanely Virtual
127 One Wish Jun 6, 2018 $4.99N/A (N/A)50,000 .. 100,0000%00:00 (00:00)GDNomadInfernal Dream
128 Marginal act Mar 28, 2018 $1.99N/A (N/A)0 .. 20,000NAN%00:00 (00:00)Marginal actMarginal act
129 Broken Minds May 28, 2018 $6.99N/A (N/A)0 .. 20,0000%00:00 (00:00)LockedOnLockedOn
130 KOEWOTAYORINI / 声之寄托 Mar 26, 2018 FreeN/A (N/A)100,000 .. 200,0000%00:00 (00:00)あみそ組Pujia8 Studio, Gamera Game
131 STEINS;GATE 0 May 8, 2018 $34.99N/A (N/A)50,000 .. 100,0000%00:00 (00:00)MAGES. Inc.Spike Chunsoft Co., Ltd.
132 ECHOPLEX Mar 15, 2018 $14.99N/A (N/A)0 .. 20,000NAN%00:00 (00:00)Output GamesOutput Games, indienova
133 Trap Part 1 May 2, 2018 FreeN/A (N/A)20,000 .. 50,000NAN%00:00 (00:00)JucarIl Pleut
134 Keep in Mind: Remastered Mar 8, 2018 $1.99N/A (N/A)0 .. 20,000NAN%00:00 (00:00)Little Moth Games, Akupara GamesAkupara Games
135 Galaxy Ball Apr 26, 2018 $3.99N/A (N/A)0 .. 20,000NAN%00:00 (00:00)Art Of AdventuresArt Of Adventures
136 TOMORROW DON'T COME - Puzzling Depression Mar 5, 2018 $2.99N/A (N/A)0 .. 20,000NAN%00:00 (00:00)Peace & Love GamesPeace & Love Games
137 INFERNIUM Apr 3, 2018 FreeN/A (N/A)0 .. 20,0000%00:00 (00:00)Carlos CoronadoCarlos Coronado
138 What do you hear?? Yanny vs Laurel Jun 9, 2018 $0.99N/A (N/A)0 .. 20,000NAN%00:00 (00:00)Hardcore StudioHardcore Studio
139 Her Lie I Tried To Believe Apr 2, 2018 FreeN/A (N/A)50,000 .. 100,0000%00:00 (00:00)Hangover Cat PurrroductionHangover Cat Purrroduction
140 Horns of Fear Jun 7, 2018 $4.99N/A (N/A)0 .. 20,000NAN%00:00 (00:00)PixoalaPixoala
141 How To Cope With Boredom and Loneliness Apr 2, 2018 FreeN/A (N/A)50,000 .. 100,000NAN%00:00 (00:00)Point Bleep StudiosBaffled Crab
142 Interactivity: The Interactive Experience Oct 22, 2019 $3.99N/A (N/A)0 .. 20,000NAN%00:00 (00:00)Aetheric GamesPixeljam
143 The Light Keeps Us Safe Sep 5, 2019 $19.99N/A (N/A)0 .. 20,000NAN%00:00 (00:00)Big Robot LtdBig Robot Ltd
144 Hello Neighbor Alpha 2 Oct 15, 2019 FreeN/A (N/A)50,000 .. 100,0000%00:00 (00:00)Dynamic PixelstinyBuild
145 Super Platformer Gun Sep 30, 2019 $9.99N/A (N/A)0 .. 20,000NAN%00:00 (00:00)Expresso StudiosExpresso Studios
146 A Summer with the Shiba Inu Aug 23, 2019 $8.99N/A (N/A)0 .. 20,000NAN%00:00 (00:00)Quill Game StudiosQuill Game Studios
147 Repressed Sep 26, 2019 $9.99N/A (N/A)0 .. 20,000NAN%00:00 (00:00)Sigur StudioARP Games
148 TUTUTUTU - Tea party Aug 14, 2019 $15.99N/A (N/A)0 .. 20,000NAN%00:00 (00:00)Marginal actMarginal act
149 Roots Of The Woods Sep 22, 2019 $10.99N/A (N/A)0 .. 20,000NAN%00:00 (00:00)PlumBear GamesPlumBear Games
150 Metro Explosion Simulator Sep 18, 2019 $0.99N/A (N/A)0 .. 20,000NAN%00:00 (00:00)Metro 2.0.7.7Metro 2.0.7.7
151 Hatch Sep 16, 2019 $2.99N/A (N/A)0 .. 20,000NAN%00:00 (00:00)RubekiRubeki
152 DON'T GIVE UP: A Cynical Tale Sep 16, 2019 $9.99N/A (N/A)0 .. 20,000NAN%00:00 (00:00)Tristan BaronaTaco Pizza Cat Games
153 Demons Never Lie Oct 22, 2019 $9.99N/A (N/A)0 .. 20,000NAN%00:00 (00:00)IndieBugRecordMedia
154 Okaeri Sep 6, 2019 $2.69N/A (N/A)0 .. 20,000NAN%00:00 (00:00)Chilla's ArtChilla's Art
155 The Last Sky Jun 26, 2020 $6.99N/A (N/A)0 .. 20,000NAN%00:00 (00:00)Little Guy GamesLittle Guy Games
156 Fatale Nov 4, 2009 $6.99N/A (N/A)0 .. 20,000NAN%00:00 (00:00)Tale of TalesTale of Tales
157 Maze: Sinister Play Collector's Edition Jun 21, 2020 $13.99N/A (N/A)0 .. 20,000NAN%00:00 (00:00)Mad Head GamesBig Fish Games
158 The Graveyard Mar 21, 2008 $4.99N/A (N/A)20,000 .. 50,000NAN%00:00 (00:00)Tale of TalesTale of Tales
159 My Beautiful Paper Smile Jun 19, 2020 $14.99N/A (N/A)500,000 .. 1,000,000NAN%00:00 (00:00)Two Star GamesV Publishing
160 Lightless Jun 19, 2020 FreeN/A (N/A)0 .. 20,000NAN%00:00 (00:00)Bahman AminipourColubris Studios Inc.
161 Waking Jun 18, 2020 $19.99N/A (N/A)0 .. 20,0000%00:00 (00:00)Jason OdatinyBuild
162 ALLBLACK Phase 1 10-2020 N/AN/A (N/A)0 .. 20,000NAN%00:00 (00:00)NSAIDNSAID
163 Interrogation Files: Port Landsend Jun 18, 2020 $6.99N/A (N/A)0 .. 20,000NAN%00:00 (00:00)Visual InteractiveVisual Interactive
164 My Mind Ghost Jul 3, 2020 $3.99N/A (N/A)0 .. 20,000NAN%00:00 (00:00)Repa Games, ImperiumGameImperiumGame
165 Brain Please Don't Jul 1, 2020 $0.99N/A (N/A)0 .. 20,000NAN%00:00 (00:00)Critique GamingCritique Gaming
166 Train of Afterlife Jan 13, 2015 $9.99N/A (N/A)0 .. 20,0000%00:00 (00:00)Zeiva IncZeiva Inc
167 A Day Without Me Jun 27, 2020 $5.99N/A (N/A)0 .. 20,000NAN%00:00 (00:00)Gamecom TeamGamecom Team
168 Winter Voices Oct 29, 2010 FreeN/A (N/A)20,000 .. 50,0000%00:00 (00:00)Clara LehenaffClara Lehenaff
169 Umineko When They Cry - Answer Arcs Nov 17, 2017 $29.99N/A (N/A)0 .. 20,0000%00:00 (00:00)07th ExpansionMangaGamer
170 Evie Feb 15, 2018 $0.74N/A (N/A)0 .. 20,000NAN%00:00 (00:00)Chilla's ArtChilla's Art
171 EPONYMOUS Oct 31, 2017 $2.99N/A (N/A)0 .. 20,000NAN%00:00 (00:00)Minor Key GamesMinor Key Games
172 Football Game Feb 13, 2018 $1.99N/A (N/A)20,000 .. 50,000NAN%00:00 (00:00)Cloak and Dagger GamesCloak and Dagger Games
173 Stitched Oct 30, 2017 $6.99N/A (N/A)0 .. 20,000NAN%00:00 (00:00)Fluffex StudiosFluffex Studios
174 Psychiatrist Simulator Feb 13, 2018 $1.99N/A (N/A)0 .. 20,0000%00:00 (00:00)EathrabariaEathrabaria
175 SIMULACRA Oct 26, 2017 $4.99N/A (N/A)50,000 .. 100,0000%00:00 (00:00)Kaigan Games OÜKaigan Games OÜ, Another Indie
176 Indecision. Feb 8, 2018 $2.99N/A (N/A)20,000 .. 50,0000%00:00 (00:00)Bilge KaanBilge Kaan
177 The Succubi Trap Oct 25, 2017 $0.99N/A (N/A)0 .. 20,000NAN%00:00 (00:00)cerebraloverloadcerebraloverload
178 KAKUSANKIBOU / 扩散希望 Jan 25, 2018 $2.99N/A (N/A)0 .. 20,0000%00:00 (00:00)あみそ組Pujia8 Studio, Gamera Game
179 Misao: Definitive Edition Oct 25, 2017 $4.99N/A (N/A)20,000 .. 50,0000%00:00 (00:00)senPLAYISM
180 Yume Nikki Jan 9, 2018 N/AN/A (N/A)200,000 .. 500,0000%00:00 (00:00)kikiyamaPLAYISM
181 Debris Oct 23, 2017 $9.99N/A (N/A)20,000 .. 50,000NAN%00:00 (00:00)Moonray StudiosMoonray Studios
182 House of Evil Dec 20, 2017 $3.99N/A (N/A)0 .. 20,0000%00:00 (00:00)Trokhin Viktorindie_games_studio
183 Blind Boris Feb 26, 2018 $12.99N/A (N/A)0 .. 20,000NAN%00:00 (00:00)Marginal actMarginal act
184 Dead Link: Pages Torn Nov 17, 2017 $7.99N/A (N/A)0 .. 20,000NAN%00:00 (00:00)phime studio LLCphime studio LLC
185 Please Love My Computer Game Feb 19, 2018 FreeN/A (N/A)20,000 .. 50,0000%00:00 (00:00)Yai GameworksYai Gameworks
186 MIND SWITCH Aug 1, 2019 FreeN/A (N/A)0 .. 20,000NAN%00:00 (00:00)Mücahit NasMücahit Nas
187 CENTRALIA Jul 30, 2019 $6.99N/A (N/A)0 .. 20,000NAN%00:00 (00:00)indie_games_studioindie_games_studio
188 Metro Trip Simulator May 27, 2019 $0.99N/A (N/A)0 .. 20,000NAN%00:00 (00:00)Metro 2.0.7.7Metro 2.0.7.7
189 She Sees Red - Interactive Movie Jul 11, 2019 $7.99N/A (N/A)50,000 .. 100,0000%00:00 (00:00)RhinotalesRhinotales
190 missed messages. May 30, 2019 FreeN/A (N/A)200,000 .. 500,000NAN%00:00 (00:00)Angela HeAngela He
191 Clea / 克莉 Jul 10, 2019 $7.99N/A (N/A)0 .. 20,000NAN%00:00 (00:00)InvertMouseInvertMouse
192 INVITATION May 17, 2019 $12.99N/A (N/A)0 .. 20,000NAN%00:00 (00:00)XIV STUDIOXIV STUDIO
193 EBOLA Jul 10, 2019 $13.99N/A (N/A)0 .. 20,000NAN%00:00 (00:00)indie_games_studioindie_games_studio
194 Koral May 16, 2019 $5.99N/A (N/A)0 .. 20,000NAN%00:00 (00:00)Carlos CoronadoCarlos Coronado
195 Monsters of Little Haven Jul 9, 2019 $1.99N/A (N/A)0 .. 20,000NAN%00:00 (00:00)Nikita Kaf ProductionsNikita Kaf Productions
196 Sumatra: Fate of Yandi May 14, 2019 $6.99N/A (N/A)0 .. 20,000NAN%00:00 (00:00)Cloak and Dagger GamesCloak and Dagger Games
197 Mr Joshua Carrot Jun 27, 2019 $0.99N/A (N/A)0 .. 20,000NAN%00:00 (00:00)Pavel KopylovPavel Kopylov
198 Psychose Aug 5, 2019 N/AN/A (N/A)0 .. 20,000NAN%00:00 (00:00)Twenty Dolz ProductionTwenty Dolz Production
199 Duck Season PC Jun 17, 2019 $9.99N/A (N/A)0 .. 20,000NAN%00:00 (00:00)Stress Level ZeroStress Level Zero
200 Dry Drowning Aug 2, 2019 $19.99N/A (N/A)0 .. 20,000NAN%00:00 (00:00)Studio V, VLGVLG Publishing, WhisperGames
201 Blame Him Jun 2, 2019 $3.74N/A (N/A)0 .. 20,000NAN%00:00 (00:00)Chilla's ArtChilla's Art
202 Tyrania - A Kinetic Visual Novel May 27, 2020 FreeN/A (N/A)0 .. 20,000NAN%00:00 (00:00)LeviathanimationLeviathanimation
203 Unfortunate Spacemen Jun 12, 2020 FreeN/A (N/A)100,000 .. 200,00026.67%01:56 (02:23)Geoff 'Zag' KeeneNew Blood Interactive
204 tomorrow won't come for those without ██████ Jul 4, 2020 $1.99N/A (N/A)0 .. 20,000NAN%00:00 (00:00)etheraneetherane
205 Missing Children | 行方不明 Jun 12, 2020 $2.99N/A (N/A)0 .. 20,000NAN%00:00 (00:00)Chilla's ArtChilla's Art
206 Hedera May 21, 2020 $2.99N/A (N/A)0 .. 20,000NAN%00:00 (00:00)Aiaz MarxAiaz Marx
207 No one lives in heaven Jun 11, 2020 $19.99N/A (N/A)0 .. 20,000NAN%00:00 (00:00)SuR ENTERTAINMENTSuR ENTERTAINMENT
208 Related May 14, 2020 $4.99N/A (N/A)0 .. 20,000NAN%00:00 (00:00)Dariia Babchuk, Andrii PetrovFRACTALCATZ
209 DreamBack VR Jun 10, 2020 $24.99N/A (N/A)20,000 .. 50,000NAN%00:00 (00:00)Come Over Gaming S.L.U.Come Over Gaming S.L.U.
210 OBEY May 12, 2020 $7.99N/A (N/A)0 .. 20,0000%00:00 (00:00)DezThe Lo-Fi Apocalypse, Inc.
211 Inconsistencies Jun 5, 2020 $4.99N/A (N/A)0 .. 20,000NAN%00:00 (00:00)MaxiigMaxiig
212 Enemy On Board May 8, 2020 FreeN/A (N/A)100,000 .. 200,000NAN%00:00 (00:00)Windwalk GamesWindwalk Games
213 My Hidden Things Jun 4, 2020 $8.99N/A (N/A)0 .. 20,000NAN%00:00 (00:00)Six DotsSix Dots
214 The Swine Jun 18, 2020 $1.99N/A (N/A)0 .. 20,000NAN%00:00 (00:00)Vincent LadeVincent Lade
215 Derange May 28, 2020 $5.99N/A (N/A)0 .. 20,000NAN%00:00 (00:00)Dark Gaia StudiosGrabTheGames
216 Across the Grooves Jun 17, 2020 $12.99N/A (N/A)0 .. 20,000NAN%00:00 (00:00)Nova-boxNova-box
217 Those Who Remain May 28, 2020 $19.99N/A (N/A)50,000 .. 100,0000%00:00 (00:00)Camel 101Wired Productions, WhisperGames
218 Demonic Blade Jun 17, 2020 $9.99N/A (N/A)0 .. 20,000NAN%00:00 (00:00)Mikołaj SpychałMikołaj Spychał
219 The Survey Oct 27, 2016 $4.99N/A (N/A)20,000 .. 50,0000%00:00 (00:00)Robert GammonRobert Gammon
220 CAT Interstellar Oct 7, 2017 FreeN/A (N/A)100,000 .. 200,0000%00:00 (00:00)Ionized GamesIonized Games
221 Wonderful Everyday Down the Rabbit-Hole Aug 30, 2017 $29.99N/A (N/A)0 .. 20,0000%00:00 (00:00)KeroQFrontwing USA
222 Inmates Oct 5, 2017 $9.99N/A (N/A)0 .. 20,000100%00:03 (00:03)Davit AndreasyanIceberg Interactive
223 One Thousand Lies Mar 28, 2016 FreeN/A (N/A)50,000 .. 100,0000%00:00 (00:00)Keinart LobreKeinart Lobre
224 Raging Loop Aug 23, 2017 $29.99N/A (N/A)0 .. 20,0000%00:00 (00:00)KEMCOKEMCO
225 Marlene Betwixt Oct 25, 2016 $3.99N/A (N/A)0 .. 20,000NAN%00:00 (00:00)Uzi GamesUzi Games
226 The Fall of Lazarus Oct 4, 2017 $11.99N/A (N/A)0 .. 20,000NAN%00:00 (00:00)No Wand StudiosNo Wand Studios
227 AMOK Mar 21, 2016 $0.99N/A (N/A)20,000 .. 50,0000%00:00 (00:00)Asset Flip StudioAsset Flip Studio
228 SOULS Aug 14, 2017 $1.99N/A (N/A)0 .. 20,000NAN%00:00 (00:00)Team ForkTeam Fork
229 Higurashi When They Cry Hou - Ch.4 Himatsubushi Oct 13, 2016 $5.99N/A (N/A)0 .. 20,0000%00:00 (00:00)07th ExpansionMangaGamer
230 The Norwood Suite Oct 2, 2017 $9.99N/A (N/A)20,000 .. 50,0000%00:00 (00:00)Cosmo DAlliance
231 UnderDread Mar 1, 2016 $4.99N/A (N/A)20,000 .. 50,000NAN%00:00 (00:00)Bigzur GamesBigzur Games
232 Close Me Aug 9, 2017 $0.99N/A (N/A)0 .. 20,0000%00:00 (00:00)Yai GameworksYai Gameworks
233 Where They Cremate The Roadkill Sep 29, 2017 $9.99N/A (N/A)0 .. 20,000NAN%00:00 (00:00)The Gunseed CollabThe Gunseed Collab
234 Legend of Hand Sep 27, 2017 $6.99N/A (N/A)0 .. 20,000NAN%00:00 (00:00)Cloak and Dagger GamesCloak and Dagger Games
235 Discouraged Workers TEEN Nov 24, 2015 $4.99N/A (N/A)0 .. 20,000NAN%00:00 (00:00)YGGDRASIL STUDIOYGGDRASIL STUDIO
236 TAURONOS Aug 4, 2017 $4.99N/A (N/A)0 .. 20,000NAN%00:00 (00:00)conradproteus, cavalie_ro, S.C. 16 BIT NIGHTS S.R.L.S.C. 16 BIT NIGHTS S.R.L.
237 Glory by Example Aug 24, 2016 $1.99N/A (N/A)0 .. 20,000NAN%00:00 (00:00)Quote StudiosQuote Studios
238 You Doesn't Exist Apr 4, 2017 FreeN/A (N/A)0 .. 20,0000%00:00 (00:00)Yo252yoYo252yo
239 Sally Face Dec 14, 2016 $2.99N/A (N/A)200,000 .. 500,0000%00:00 (00:00)Steve GabryPortable Moose
240 The Mind of Marlo Oct 19, 2017 FreeN/A (N/A)0 .. 20,0000%00:00 (00:00)Point Bleep StudiosBaffled Crab
241 Umineko When They Cry - Question Arcs Jul 8, 2016 $24.99N/A (N/A)0 .. 20,0000%00:00 (00:00)07th ExpansionMangaGamer
242 Caligo Sep 22, 2017 $5.99N/A (N/A)20,000 .. 50,000NAN%00:00 (00:00)KrealitKrealit
243 Campfire: One of Us Is the Killer Dec 7, 2016 $2.99N/A (N/A)20,000 .. 50,0000%00:00 (00:00)Abstractive WorksAbstractive Works
244 Gil's Lucid Dreams Oct 17, 2017 $0.99N/A (N/A)0 .. 20,0000%00:00 (00:00)Christian PianoOblion Studio
245 Higurashi When They Cry Hou - Ch.3 Tatarigoroshi Jun 17, 2016 $7.99N/A (N/A)20,000 .. 50,0000%00:00 (00:00)07th ExpansionMangaGamer
246 Vasilis Apr 15, 2019 $0.89N/A (N/A)0 .. 20,000NAN%00:00 (00:00)Marginal actMarginal act
247 Forgiveness : Escape Room Feb 28, 2019 $9.99N/A (N/A)0 .. 20,000NAN%00:00 (00:00)Chaos MindsChaos Minds
248 House of Evil 2 Apr 2, 2019 $12.99N/A (N/A)0 .. 20,000NAN%00:00 (00:00)indie_games_studioindie_games_studio
249 The Dead Tree of Ranchiuna Feb 14, 2019 $7.99N/A (N/A)0 .. 20,000NAN%00:00 (00:00)Tonguç BodurTonguç Bodur
250 Where the Bees Make Honey Mar 26, 2019 $9.99N/A (N/A)0 .. 20,000NAN%00:00 (00:00)Wakefield InteractiveWhitethorn Digital
251 Dream Rose Feb 27, 2019 $4.99N/A (N/A)0 .. 20,000NAN%00:00 (00:00)SupremePsychoFlux Entertainment
252 1406 Mar 21, 2019 $5.99N/A (N/A)0 .. 20,000NAN%00:00 (00:00)indie_games_studioindie_games_studio
253 M.E.M.E.S. Feb 8, 2019 $6.99N/A (N/A)0 .. 20,000NAN%00:00 (00:00)M.E.M.E. Studios, Rafal KorbaczynskiRafal Korbaczynski
254 Double Mar 15, 2019 $5.99N/A (N/A)0 .. 20,000NAN%00:00 (00:00)TomatoFantasyGamesTomatoFantasyGames, GrabTheGames
255 K.O.M.A Mar 14, 2019 $1.99N/A (N/A)0 .. 20,000NAN%00:00 (00:00)Enno GamesEnno Technologies
256 The Psychiatrist: Major Depression May 3, 2019 $5.99N/A (N/A)0 .. 20,000NAN%00:00 (00:00)Demir LeylekDemir Leylek
257 DooM in the Dark Mar 8, 2019 $5.99N/A (N/A)0 .. 20,000NAN%00:00 (00:00)indie_games_studioindie_games_studio
258 6120 Apr 19, 2019 $4.99N/A (N/A)0 .. 20,000NAN%00:00 (00:00)indie_games_studioindie_games_studio
259 When the Darkness comes Mar 1, 2019 FreeN/A (N/A)200,000 .. 500,0000%00:00 (00:00)SirhaianSirhaian
260 Crew 167: The Grand Block Odyssey Apr 8, 2020 $17.99N/A (N/A)0 .. 20,000NAN%00:00 (00:00)oddbreezeoddbreeze
261 Birth ME Code Apr 22, 2020 $24.99N/A (N/A)0 .. 20,000NAN%00:00 (00:00)Miracle MoonMiracle Moon
262 We Went Back Apr 3, 2020 FreeN/A (N/A)200,000 .. 500,000NAN%00:00 (00:00)Dead Thread GamesDead Thread Games
263 The Gateway Trilogy Mar 31, 2020 $9.99N/A (N/A)0 .. 20,000NAN%00:00 (00:00)Cockroach Inc.The Sleeping Machine
264 I'mitation The Eight Suicide Note Apr 19, 2020 FreeN/A (N/A)20,000 .. 50,000NAN%00:00 (00:00)O369StudioO369Studio
265 No Exit Mar 29, 2020 $1.99N/A (N/A)0 .. 20,000NAN%00:00 (00:00)Ankush RaiAnkush Rai
266 Bios Ex - Yami no Wakusei Apr 17, 2020 $9.99N/A (N/A)0 .. 20,000NAN%00:00 (00:00)Gogen SoftGogen Soft
267 Em-A-Zurvival Apr 7, 2020 $3.99N/A (N/A)0 .. 20,000NAN%00:00 (00:00)YobobY.B.
268 Mad Experiments: Escape Room Apr 16, 2020 $9.99N/A (N/A)0 .. 20,000NAN%00:00 (00:00)PlayTogether StudioPlayTogether Studio
269 Escape First 3 Mar 21, 2020 $6.99N/A (N/A)0 .. 20,000NAN%00:00 (00:00)OnSkull GamesOnSkull Games
270 Peekaboo Collection - 3 Tales of Horror Apr 14, 2020 $2.39N/A (N/A)0 .. 20,000NAN%00:00 (00:00)Vidas SalavejusVidas Salavejus
271 The Walking Evil May 1, 2020 $12.99N/A (N/A)0 .. 20,000NAN%00:00 (00:00)indie_games_studioindie_games_studio
272 My Hole is a Mouth of Dirt Apr 13, 2020 FreeN/A (N/A)0 .. 20,000NAN%00:00 (00:00)Yai GameworksYai Gameworks
273 Onryo | 怨霊 Apr 24, 2020 $3.99N/A (N/A)0 .. 20,000NAN%00:00 (00:00)Chilla's ArtChilla's Art
274 Heal Apr 10, 2020 $6.99N/A (N/A)0 .. 20,000NAN%00:00 (00:00)Jesse MakkonenJesse Makkonen
275 Locked Up Apr 23, 2020 $12.99N/A (N/A)0 .. 20,000NAN%00:00 (00:00)EMIKA_GAMESEMIKA_GAMES
276 Hotel Anatolia Mar 20, 2017 $0.99N/A (N/A)100,000 .. 200,0000%00:00 (00:00)Elven WorkshopElven Workshop
277 TRATEL64 Jun 19, 2017 FreeN/A (N/A)0 .. 20,0000%00:00 (00:00)UWILMODUWILMOD
278 Shadows Peak Mar 13, 2017 $9.99N/A (N/A)0 .. 20,0000%00:00 (00:00)Andrii VintsevychAndrii Vintsevych
279 The Agony Jun 14, 2017 $0.99N/A (N/A)50,000 .. 100,000NAN%00:00 (00:00)KishMish GamesKishMish Games
280 Deceit Mar 3, 2017 FreeN/A (N/A)5,000,000 .. 10,000,0001.52%03:40 (00:56)BaselineBaseline
281 Phantasma VR Jun 12, 2017 $9.99N/A (N/A)0 .. 20,000NAN%00:00 (00:00)The Shady GentlemenThe Shady Gentlemen
282 Bayou Island - Point and Click Adventure Feb 28, 2017 $1.99N/A (N/A)20,000 .. 50,0000%00:00 (00:00)Andy Howard GamesAndy Howard Games
283 Across The Moment Jun 5, 2017 $0.99N/A (N/A)20,000 .. 50,0000%00:00 (00:00)Andrei RomanovQuiquopro Games
284 Among the Innocent: A Stricken Tale Feb 14, 2017 $7.99N/A (N/A)0 .. 20,0000%00:00 (00:00)Zero Degrees GamesZero Degrees Games
285 Fumiko! Feb 13, 2017 $6.99N/A (N/A)20,000 .. 50,0000%00:00 (00:00)Fumiko GamesFumiko Games
286 Lazaretto May 19, 2017 $6.99N/A (N/A)0 .. 20,000NAN%00:00 (00:00)Iron MonkeyD'Avekki Studios Ltd
287 PSYCHO-PASS: Mandatory Happiness Apr 24, 2017 $9.99N/A (N/A)0 .. 20,0000%00:00 (00:00)MAGES. Inc., 5pb.NIS America, Inc.
288 Crimson Gray Jul 14, 2017 $9.99N/A (N/A)0 .. 20,0000%00:00 (00:00)Sierra LeeSierra Lee
289 The Search Apr 13, 2017 $3.99N/A (N/A)50,000 .. 100,0000%00:00 (00:00)Jason GodbeyJason Godbey
Overview

Psychological

Games with this tag: 289
Average userscore: N/A%
Average metascore: 71.55%
Average playtime: 01:48
Total copies owned: 36,849,000
Average price: $9.26
Help

Owners: Estimated number of people owning this game. The number might be way too small for new releases and sometimes way too big for games that had free weekend event recently. Read more on About page.

Playtime: Average hours played in total per person that have actually launched this game since March 2009. This time is calculated for the whole lifetime, not for the particular year.

Average score: Average users and metacritic score for all games with this score assigned.

Average playtime: Average lifetime playtime for all games where this data is available.

Games in this genre: Self-explaining - number of games with this tag. Only inculdes games with sales data available.

Total copies owned: Refers to total copies of games with this tag acquired by users for the lifetime. Includes copies sold, downloaded for free and given out.

This number might be too small for recently released games or too big for games that had a free weekend in the last couple of months.

Graphs

Login required.

Please register or log in to see this information.

Login required.

Please register or log in to see this information.